OSOK1: Oswego hwy 160

                                SHEF ID:       OSOK1     Oswego hwy 160
STATION TYPE:

PRECIP STAGE RIV-FLOW VOLTAGE BAT-LOAD
in ft cfs volt volt
Ccp-Rev Ccp-Rev Ccp-Rev Ccp-Rev Ccp-Rev
(America/Chicago)
03/16 00:00 0.00 13.44 4430 12.73 12.46
03/16 01:00 0.00 13.43 4416 12.71 12.43
03/16 02:00 0.00 13.43 4416 12.69 12.41
03/16 03:00 0.00 13.41 4389 12.67 12.38
03/16 04:00 0.00 13.39 4362 12.65 12.37
03/16 05:00 0.00 13.40 4376 12.63 12.34
03/16 06:00 0.00 13.39 4362 12.61 12.31
03/16 07:00 0.00 13.38 4349 12.58 12.29
03/16 08:00 0.00 13.37 4335 12.65 12.30
03/16 09:00 0.00 13.37 4335 14.87 13.31
03/16 10:00 0.00 13.35 4308 14.68 13.71
03/16 11:00 0.00 13.34 4295 14.28 13.52
03/16 12:00 0.00 13.35 4308 14.28 13.41
03/16 13:00 0.00 13.33 4281 14.28 13.35
03/16 14:00 0.00 13.33 4281 14.22 13.35
03/16 15:00 0.00 13.30 4241 14.13 13.36
03/16 16:00 0.00 13.31 4254 14.06 13.32
03/16 17:00 0.00 13.30 4241 14.03 13.28
03/16 18:00 0.00 13.28 4214 14.10 13.24
03/16 19:00 0.00 13.28 4214 13.47 13.22
03/16 20:00 0.00 13.27 4201 13.19 12.98
03/16 21:00 0.00 13.26 4188 12.99 12.76
03/16 22:00 0.00 13.26 4188 12.85 12.60
03/16 23:00 0.00 13.25 4174 12.78 12.50
Data processed at Tue 17Mar2026 04:50 GMT

NOTICE: If you are parsing this page

Please convert to using our Data API. Starting early 2026 we will be migrating to: https://water.usace.army.mil with modern pages rendered in JavaScript. When this migration completes you will no longer be able to scrape this page! CWMSDataAPI (CDA)

Timeseries IDs (TSIDs)

TSIDs used from left to right in the data table
OSWN.Precip-Inc.Total.1Hour.1Hour.Ccp-Rev
OSWN.Stage.Inst.1Hour.0.Ccp-Rev
OSWN.Flow.Inst.1Hour.0.Ccp-Rev
OSWN.Volt-Battery.Inst.1Hour.0.Ccp-Rev
OSWN.Volt-Battery Load.Inst.1Hour.0.Ccp-Rev

                            

All information presented herein is the property of the government of the United States of America and may be revised or deleted at any time without prior notice. Dissemination of this information without the expressed written consent of the Public Affairs Office, Tulsa District U.S. Army Corps of Engineers is strictly prohibited. These data are gathered electronically and, as presented, have NOT undergone any form of quality control. These data are NOT guaranteed to be valid or correct.